Flight Track Log - Related Links

Times and Time Zones

All times are in EST time to prevent confusion due to time zone crossing. See the UAL4536 flight status page for this flight to view local times or setup timezone preferences in your user account.

Time Position Orientation Groundspeed Altitude Reporting Facility
EST Latitude Longitude Course Direction KTS MPH feet Rate Location/Type
Sun 09:49:08 PM 40.7167 -74.1500 252° West 162 186 2,100  Level New York TRACON
Sun 09:50:08 PM 40.7333 -74.2000 294° West 200 230 4,400 2,650 Climbing New York TRACON
Sun 09:51:08 PM 40.7000 -74.2833 242° Southwest 240 276 7,400 2,684 Climbing New York TRACON
Sun 09:52:00 PM 40.6333 -74.7040 237° Southwest  Level Estimated
Sun 09:52:02 PM 40.6833 -74.3667 255° West 264 304 9,500  Level New York TRACON
Sun 09:53:00 PM 40.6181 -74.8376 180° South  Level Estimated
Sun 09:54:00 PM 40.6027 -74.9713 252° West  Level Estimated
Sun 09:54:05 PM 40.7131 -74.5028 286° West 218 251 13,900  Level New York Center
Sun 09:55:05 PM 40.7847 -74.5450 336° Northwest 241 277 16,200 1,550 Climbing New York Center
Sun 09:56:05 PM 40.8219 -74.6156 305° West 229 264 17,000 950 Climbing New York Center
Sun 09:57:05 PM 40.7825 -74.7339 246° West 263 303 18,100 1,450 Climbing New York Center
Sun 09:58:05 PM 40.7497 -74.8442 249° West 307 353 19,900 1,550 Climbing New York Center
Sun 09:59:05 PM 40.7186 -74.9603 251° West 322 371 21,200 1,250 Climbing New York Center
Sun 10:00:05 PM 40.6853 -75.0758 249° West 332 382 22,400 1,450 Climbing New York Center
Sun 10:01:05 PM 40.6331 -75.1875 238° Southwest 344 396 24,100 1,750 Climbing New York Center
Sun 10:02:05 PM 40.5853 -75.2936 239° Southwest 349 402 25,900 1,650 Climbing New York Center
Sun 10:03:05 PM 40.5353 -75.3997 238° Southwest 349 402 27,400 1,050 Climbing New York Center
Sun 10:04:05 PM 40.4872 -75.5083 240° Southwest 344 396 28,000 300 Climbing New York Center
Sun 10:05:05 PM 40.4347 -75.6219 239° Southwest 344 396 28,000  Level New York Center
Sun 10:06:05 PM 40.3844 -75.7328 239° Southwest 372 428 28,000 300 Level New York Center
Sun 10:07:05 PM 40.3292 -75.8542 239° Southwest 386 444 28,600 900 Climbing New York Center
Sun 10:08:05 PM 40.2692 -75.9858 239° Southwest 391 450 29,800 1,000 Climbing New York Center
Sun 10:09:05 PM 40.2272 -76.0831 241° Southwest 385 443 30,600 800 Climbing New York Center
Sun 10:10:05 PM 40.1644 -76.2278 240° Southwest 385 443 31,400 1,100 Climbing New York Center
Sun 10:11:05 PM 40.1150 -76.3489 242° Southwest 385 443 32,800 1,114 Climbing New York Center
Sun 10:13:35 PM 39.9861 -76.6475 241° Southwest 394 453 35,300 923 Climbing Washington Center
Sun 10:14:33 PM 39.9372 -76.7658 242° Southwest 389 448 36,000 359 Climbing Washington Center
Sun 10:15:32 PM 39.8881 -76.8706 239° Southwest 389 448 36,000  Level Washington Center
Sun 10:16:33 PM 39.8389 -76.9831 240° Southwest 378 435 36,000  Level Washington Center
Sun 10:17:34 PM 39.7897 -77.1011 242° Southwest 373 429 36,000  Level Washington Center
Sun 10:18:35 PM 39.7361 -77.2186 239° Southwest 373 429 36,000  Level Washington Center
Sun 10:19:33 PM 39.6864 -77.3361 241° Southwest 373 429 36,000  Level Washington Center
Sun 10:20:33 PM 39.6347 -77.4508 240° Southwest 373 429 36,000  Level Washington Center
Sun 10:21:34 PM 39.5850 -77.5653 241° Southwest 373 429 36,000  Level Washington Center
Sun 10:22:35 PM 39.5311 -77.6794 239° Southwest 373 429 36,000  Level Washington Center
Sun 10:23:33 PM 39.4831 -77.7936 241° Southwest 373 429 36,000  Level Washington Center
Sun 10:24:34 PM 39.4331 -77.9022 239° Southwest 373 429 36,000  Level Washington Center
Sun 10:25:34 PM 39.3831 -78.0136 240° Southwest 373 429 36,000  Level Washington Center
Sun 10:26:32 PM 39.3328 -78.1244 240° Southwest 368 423 36,000  Level Washington Center
Sun 10:27:33 PM 39.2803 -78.2381 239° Southwest 368 423 36,000  Level Washington Center
Sun 10:28:34 PM 39.2319 -78.3514 241° Southwest 368 423 36,000  Level Washington Center
Sun 10:29:33 PM 39.1794 -78.4619 239° Southwest 368 423 36,000  Level Washington Center
Sun 10:30:34 PM 39.1264 -78.5803 240° Southwest 373 429 36,000  Level Washington Center
Sun 10:31:35 PM 39.0736 -78.6958 240° Southwest 373 429 36,000  Level Washington Center
Sun 10:32:33 PM 39.0206 -78.8111 239° Southwest 373 429 36,000  Level Washington Center
Sun 10:33:34 PM 38.9650 -78.9289 239° Southwest 373 429 36,000  Level Washington Center
Sun 10:34:34 PM 38.9117 -79.0464 240° Southwest 373 429 36,000  Level Washington Center
Sun 10:35:35 PM 38.8564 -79.1611 238° Southwest 373 429 36,000  Level Washington Center
Sun 10:36:35 PM 38.8381 -79.2803 259° West 365 420 36,000  Level Washington Center
Sun 10:37:35 PM 38.8342 -79.4028 268° West 344 396 36,000  Level Washington Center
Sun 10:38:33 PM 38.8325 -79.5225 269° West 344 396 36,000  Level Washington Center
Sun 10:39:33 PM 38.8344 -79.6506 271° West 359 413 36,000  Level Washington Center
Sun 10:40:34 PM 38.8303 -79.7703 267° West 354 407 36,000  Level Washington Center
Sun 10:41:35 PM 38.8261 -79.8872 267° West 348 400 36,000  Level Washington Center
Sun 10:42:33 PM 38.8239 -80.0069 269° West 348 400 36,000  Level Washington Center
Sun 10:43:33 PM 38.8214 -80.1294 269° West 348 400 36,000  Level Washington Center
Sun 10:44:53 PM 38.8142 -80.2867 267° West 335 386 36,000  Level Indianapolis Center
Sun 10:45:54 PM 38.8117 -80.4061 268° West 335 386 36,000  Level Indianapolis Center
Sun 10:46:55 PM 38.8078 -80.5250 268° West 333 383 36,000  Level Indianapolis Center
Sun 10:47:55 PM 38.7986 -80.6458 264° West 339 390 36,000  Level Indianapolis Center
Sun 10:48:56 PM 38.7808 -80.7656 259° West 341 392 36,000  Level Indianapolis Center
Sun 10:49:57 PM 38.7644 -80.8872 260° West 345 397 36,000  Level Indianapolis Center
Sun 10:50:58 PM 38.7464 -81.0061 259° West 342 394 36,000  Level Indianapolis Center
Sun 10:51:58 PM 38.7286 -81.1264 259° West 341 392 36,000  Level Indianapolis Center
Sun 10:52:59 PM 38.7119 -81.2450 260° West 339 390 36,000  Level Indianapolis Center
Sun 10:54:00 PM 38.6942 -81.3656 259° West 341 392 36,000  Level Indianapolis Center
Sun 10:55:01 PM 38.6742 -81.4997 259° West 340 391 36,000  Level Indianapolis Center
Sun 10:56:01 PM 38.6567 -81.6183 259° West 342 394 36,000  Level Indianapolis Center
Sun 10:57:02 PM 38.6397 -81.7347 259° West 342 394 36,000  Level Indianapolis Center
Sun 10:58:03 PM 38.6222 -81.8542 259° West 341 392 36,000  Level Indianapolis Center
Sun 10:59:04 PM 38.6036 -81.9736 259° West 341 392 36,000  Level Indianapolis Center
Sun 11:00:05 PM 38.5858 -82.0919 259° West 339 390 36,000  Level Indianapolis Center
Sun 11:01:05 PM 38.5669 -82.2114 259° West 341 392 36,000  Level Indianapolis Center
Sun 11:02:06 PM 38.5481 -82.3331 259° West 347 399 36,000  Level Indianapolis Center
Sun 11:03:07 PM 38.5289 -82.4544 259° West 345 397 36,000  Level Indianapolis Center
Sun 11:04:08 PM 38.5097 -82.5750 259° West 347 399 36,000 -198 Level Indianapolis Center
Sun 11:05:08 PM 38.4922 -82.6969 260° West 348 400 35,600 -1,339 Descending Indianapolis Center
Sun 11:06:09 PM 38.5025 -82.8117 277° West 331 381 33,300 -2,361 Descending Indianapolis Center
Sun 11:07:10 PM 38.5150 -82.9264 278° West 326 375 30,800 -2,705 Descending Indianapolis Center
Sun 11:08:11 PM 38.5300 -83.0686 278° West 343 395 27,800 -2,777 Descending Indianapolis Center
Sun 11:09:11 PM 38.5436 -83.1978 278° West 360 414 25,200 -2,876 Descending Indianapolis Center
Sun 11:10:12 PM 38.5558 -83.3333 277° West 377 434 22,000 -2,902 Descending Indianapolis Center
Sun 11:11:13 PM 38.5683 -83.4614 277° West 367 422 19,300 -2,557 Descending Indianapolis Center
Sun 11:12:14 PM 38.5806 -83.5844 277° West 353 406 16,800 -2,975 Descending Indianapolis Center
Sun 11:13:14 PM 38.5928 -83.7036 278° West 342 394 13,300 -3,322 Descending Indianapolis Center
Sun 11:14:15 PM 38.6033 -83.8192 277° West 331 381 10,100 -1,623 Descending Indianapolis Center
Sun 11:15:16 PM 38.6167 -83.9353 278° West 329 379 10,000 -50 Descending Indianapolis Center
Sun 11:16:16 PM 38.6492 -84.0272 294° West 321 369 10,000  Level Indianapolis Center
Sun 11:17:17 PM 38.6867 -84.1325 295° West 323 372 10,000  Level Indianapolis Center
Sun 11:18:18 PM 38.7217 -84.2336 294° West 315 362 10,000 -397 Level Indianapolis Center
Sun 11:19:18 PM 38.7517 -84.3203 294° West 276 318 9,200 -1,388 Descending Indianapolis Center
Sun 11:20:19 PM 38.7864 -84.4211 294° West 262 302 7,200 -1,721 Descending Indianapolis Center
Sun 11:21:20 PM 38.8142 -84.4986 295° West 247 284 5,700 -1,190 Descending Indianapolis Center
Sun 11:22:20 PM 38.8492 -84.5550 309° West 244 281 4,800 -1,186 Descending Indianapolis Center
Sun 11:24:07 PM 38.9500 -84.6500 324° Northwest 201 231 2,400 -1,040 Descending Cincinnati TRACON
Sun 11:25:13 PM 38.9833 -84.6667 339° North 129 148 1,800 -619 Descending Cincinnati TRACON
Sun 11:26:13 PM 39.0333 -84.6667 360° North 125 144 1,100 -700 Descending Cincinnati TRACON

Login

Don't have an account? Register now (free) for customized features, flight alerts, and more!